createdAt,value
2023-02-02T00:02:01.099Z,12.94
2023-02-02T00:04:30.130Z,13.28
2023-02-02T00:06:57.704Z,12.28
2023-02-02T00:09:28.833Z,12.43
2023-02-02T00:11:56.330Z,12.46
2023-02-02T00:14:23.573Z,12.32
2023-02-02T00:16:54.553Z,12.33
2023-02-02T00:19:27.640Z,12.48
2023-02-02T00:21:55.458Z,11.48
2023-02-02T00:24:22.985Z,11.71
2023-02-02T00:26:53.811Z,11.81
2023-02-02T00:29:23.280Z,11.97
2023-02-02T00:31:50.367Z,11.99
2023-02-02T00:34:17.640Z,11.79
2023-02-02T00:36:47.865Z,12.15
2023-02-02T00:39:18.522Z,12.01
2023-02-02T00:41:45.693Z,12.27
2023-02-02T00:44:30.816Z,12.13
2023-02-02T00:46:57.357Z,11.86
2023-02-02T00:49:24.068Z,11.64
2023-02-02T00:51:50.924Z,12.33
2023-02-02T00:54:17.531Z,12.05
2023-02-02T00:56:44.248Z,12.42
2023-02-02T00:59:11.500Z,11.40
2023-02-02T01:01:38.191Z,11.94
2023-02-02T01:04:05.622Z,11.98
2023-02-02T01:06:32.168Z,11.98
2023-02-02T01:08:58.711Z,11.93
2023-02-02T01:11:25.767Z,12.04
2023-02-02T01:13:53.573Z,12.00
2023-02-02T01:16:22.406Z,11.94
2023-02-02T01:18:50.750Z,12.03
2023-02-02T01:21:17.388Z,11.71
2023-02-02T01:23:44.426Z,11.58
2023-02-02T01:26:12.330Z,11.25
2023-02-02T01:28:39.434Z,11.40
2023-02-02T01:31:08.880Z,11.52
2023-02-02T01:33:36.185Z,11.53
2023-02-02T01:36:06.890Z,11.70
2023-02-02T01:38:34.006Z,11.77
2023-02-02T01:41:01.386Z,11.99
2023-02-02T01:43:31.193Z,11.89
2023-02-02T01:45:58.859Z,11.58
2023-02-02T01:48:29.541Z,11.54
2023-02-02T01:51:00.477Z,11.62
2023-02-02T01:53:28.282Z,11.62
2023-02-02T01:55:55.284Z,11.19
2023-02-02T01:58:28.146Z,11.24
2023-02-02T02:00:54.822Z,11.24
2023-02-02T02:03:25.046Z,11.19
2023-02-02T02:05:58.568Z,11.34
2023-02-02T02:08:54.862Z,11.60
2023-02-02T02:11:22.563Z,11.45
2023-02-02T02:14:09.350Z,11.97
2023-02-02T02:16:58.339Z,11.76
2023-02-02T02:20:11.826Z,10.93
2023-02-02T02:23:19.274Z,11.15
2023-02-02T02:26:29.699Z,11.45
2023-02-02T02:29:11.600Z,11.65
2023-02-02T02:32:23.542Z,11.98
2023-02-02T02:34:56.270Z,12.10
2023-02-02T02:37:33.455Z,11.99
2023-02-02T02:40:08.401Z,11.71
2023-02-02T02:42:41.643Z,12.00
2023-02-02T02:45:11.382Z,11.85
2023-02-02T02:47:39.206Z,12.21
2023-02-02T02:50:06.425Z,11.98
2023-02-02T02:52:34.850Z,12.02
2023-02-02T02:55:03.016Z,11.67
2023-02-02T02:57:54.433Z,11.41
2023-02-02T03:01:02.626Z,11.29
2023-02-02T03:03:41.940Z,11.69
2023-02-02T03:06:21.578Z,11.67
2023-02-02T03:09:06.389Z,11.70
2023-02-02T03:11:34.995Z,11.77
2023-02-02T03:14:01.935Z,11.73
2023-02-02T03:16:28.436Z,11.77
2023-02-02T03:18:56.077Z,11.76
2023-02-02T03:21:23.072Z,11.90
2023-02-02T03:23:49.636Z,11.46
2023-02-02T03:26:16.646Z,11.70
2023-02-02T03:28:43.629Z,11.67
2023-02-02T03:31:10.256Z,11.63
2023-02-02T03:33:37.938Z,11.27
2023-02-02T03:36:05.661Z,11.26
2023-02-02T03:38:32.141Z,11.34
2023-02-02T03:40:58.665Z,11.30
2023-02-02T03:43:25.332Z,11.13
2023-02-02T03:46:00.234Z,11.04
2023-02-02T03:48:27.656Z,10.75
2023-02-02T03:50:54.290Z,11.00
2023-02-02T03:53:21.289Z,11.34
2023-02-02T03:55:47.776Z,11.30
2023-02-02T03:58:14.655Z,11.55
2023-02-02T04:00:41.325Z,11.35
2023-02-02T04:03:07.877Z,11.54
2023-02-02T04:05:34.436Z,11.41
2023-02-02T04:08:01.568Z,11.32
2023-02-02T04:10:28.067Z,11.77
2023-02-02T04:12:54.607Z,11.39
2023-02-02T04:15:21.163Z,11.74
2023-02-02T04:17:47.659Z,11.42
2023-02-02T04:20:14.250Z,11.34
2023-02-02T04:22:40.752Z,11.29
2023-02-02T04:25:07.607Z,11.40
2023-02-02T04:27:34.228Z,11.39
2023-02-02T04:30:00.870Z,11.26
2023-02-02T04:32:27.374Z,11.17
2023-02-02T04:34:53.862Z,11.18
2023-02-02T04:37:20.433Z,11.07
2023-02-02T04:39:48.324Z,10.91
2023-02-02T04:42:14.810Z,10.79
2023-02-02T04:44:41.573Z,11.26
2023-02-02T04:47:08.077Z,11.47
2023-02-02T04:49:34.580Z,11.44
2023-02-02T04:52:01.265Z,11.30
2023-02-02T04:54:27.785Z,11.27
2023-02-02T04:56:54.429Z,11.12
2023-02-02T04:59:21.032Z,11.33
2023-02-02T05:01:48.187Z,10.95
2023-02-02T05:04:14.701Z,11.22
2023-02-02T05:06:41.571Z,11.57
2023-02-02T05:09:08.551Z,11.32
2023-02-02T05:11:35.475Z,11.00
2023-02-02T05:14:01.969Z,11.07
2023-02-02T05:16:29.327Z,10.89
2023-02-02T05:18:56.882Z,10.74
2023-02-02T05:21:23.734Z,10.67
2023-02-02T05:23:50.415Z,10.98
2023-02-02T05:26:22.103Z,11.23
2023-02-02T05:28:49.118Z,11.08
2023-02-02T05:31:15.794Z,10.55
2023-02-02T05:33:42.623Z,13.89
2023-02-02T05:36:09.376Z,14.31
2023-02-02T05:38:36.492Z,12.62
2023-02-02T05:41:03.878Z,12.98
2023-02-02T05:43:32.047Z,13.52
2023-02-02T05:45:59.036Z,12.33
2023-02-02T05:48:26.016Z,15.26
2023-02-02T05:51:21.345Z,12.61
2023-02-02T05:53:47.893Z,11.88
2023-02-02T05:56:15.713Z,13.04
2023-02-02T05:58:43.174Z,13.17
2023-02-02T06:01:10.031Z,13.52
2023-02-02T06:03:36.594Z,14.57
2023-02-02T06:06:04.882Z,14.61
2023-02-02T06:08:33.154Z,14.92
2023-02-02T06:10:59.649Z,12.89
2023-02-02T06:13:26.243Z,13.21
2023-02-02T06:15:52.931Z,12.49
2023-02-02T06:18:19.462Z,12.05
2023-02-02T06:20:46.973Z,12.40
2023-02-02T06:23:13.494Z,12.49
2023-02-02T06:25:40.017Z,12.30
2023-02-02T06:28:07.668Z,14.67
2023-02-02T06:30:34.276Z,12.88
2023-02-02T06:33:00.821Z,12.62
2023-02-02T06:35:27.682Z,14.26
2023-02-02T06:37:54.623Z,14.91
2023-02-02T06:40:21.130Z,13.69
2023-02-02T06:42:47.624Z,12.76
2023-02-02T06:45:14.619Z,12.24
2023-02-02T06:47:41.595Z,13.35
2023-02-02T06:50:09.303Z,13.31
2023-02-02T06:52:36.208Z,12.55
2023-02-02T06:55:02.699Z,12.85
2023-02-02T06:57:29.264Z,12.49
2023-02-02T06:59:56.429Z,13.11
2023-02-02T07:02:23.343Z,13.51
2023-02-02T07:04:49.901Z,12.79
2023-02-02T07:07:16.441Z,12.98
2023-02-02T07:09:43.103Z,12.74
2023-02-02T07:12:09.633Z,12.73
2023-02-02T07:14:36.141Z,12.67
2023-02-02T07:17:02.839Z,12.76
2023-02-02T07:19:29.593Z,11.95
2023-02-02T07:21:56.104Z,12.44
2023-02-02T07:24:22.689Z,12.73
2023-02-02T07:26:49.264Z,12.76
2023-02-02T07:29:15.777Z,12.60
2023-02-02T07:31:42.766Z,12.90
2023-02-02T07:34:09.406Z,13.05
2023-02-02T07:36:36.241Z,13.47
2023-02-02T07:39:05.100Z,12.58
2023-02-02T07:41:33.453Z,12.73
2023-02-02T07:44:00.035Z,12.63
2023-02-02T07:46:26.626Z,12.97
2023-02-02T07:48:55.562Z,17.88
2023-02-02T07:51:22.610Z,19.97
2023-02-02T07:53:51.501Z,18.08
2023-02-02T07:56:23.817Z,15.81
2023-02-02T07:58:55.537Z,15.15
2023-02-02T08:01:23.770Z,14.87
2023-02-02T08:03:50.565Z,14.64
2023-02-02T08:06:23.241Z,18.09
2023-02-02T08:08:50.950Z,15.48
2023-02-02T08:11:20.277Z,14.65
2023-02-02T08:13:52.560Z,14.68
2023-02-02T08:16:19.904Z,14.32
2023-02-02T08:18:46.984Z,14.74
2023-02-02T08:21:14.481Z,13.95
2023-02-02T08:23:41.708Z,13.26
2023-02-02T08:26:17.917Z,13.41
2023-02-02T08:28:47.404Z,13.12
2023-02-02T08:31:21.529Z,13.79
2023-02-02T08:33:48.728Z,15.66
2023-02-02T08:36:19.943Z,18.75
2023-02-02T08:38:46.804Z,17.17
2023-02-02T08:41:16.303Z,15.88
2023-02-02T08:43:43.384Z,15.43
2023-02-02T08:46:11.726Z,15.04
2023-02-02T08:48:38.791Z,14.44
2023-02-02T08:51:07.336Z,16.65
2023-02-02T08:53:34.696Z,17.20
2023-02-02T08:56:07.339Z,16.44
2023-02-02T08:58:34.801Z,16.88
2023-02-02T09:01:12.912Z,16.80
2023-02-02T09:03:40.335Z,17.63
2023-02-02T09:06:08.631Z,16.90
2023-02-02T09:08:35.215Z,16.72
2023-02-02T09:11:10.198Z,15.88
2023-02-02T09:13:38.484Z,18.00
2023-02-02T09:16:08.252Z,16.86
2023-02-02T09:18:34.805Z,17.22
2023-02-02T09:21:04.515Z,17.82
2023-02-02T09:23:32.579Z,20.35
2023-02-02T09:26:19.028Z,20.44
2023-02-02T09:28:48.641Z,24.25
2023-02-02T09:31:15.594Z,24.84
2023-02-02T09:33:42.897Z,23.81
2023-02-02T09:36:21.483Z,22.18
2023-02-02T09:38:49.705Z,22.54
2023-02-02T09:41:37.675Z,23.28
2023-02-02T09:44:22.277Z,22.40
2023-02-02T09:47:12.383Z,21.54
2023-02-02T09:49:54.154Z,20.97
2023-02-02T09:52:27.715Z,20.75
2023-02-02T09:55:10.861Z,20.80
2023-02-02T09:57:43.255Z,21.17
2023-02-02T10:00:33.688Z,21.60
2023-02-02T10:03:12.090Z,22.13
2023-02-02T10:06:06.239Z,22.32
2023-02-02T10:08:42.515Z,22.47
2023-02-02T10:11:27.077Z,23.56
2023-02-02T10:13:58.542Z,23.94
2023-02-02T10:16:25.445Z,24.34
2023-02-02T10:19:05.085Z,24.14
2023-02-02T10:21:46.489Z,24.00
2023-02-02T10:24:20.207Z,24.11
2023-02-02T10:26:50.534Z,23.79
2023-02-02T10:29:47.977Z,23.37
2023-02-02T10:32:34.030Z,22.41
2023-02-02T10:35:20.053Z,21.51
2023-02-02T10:38:21.066Z,20.84
2023-02-02T10:41:17.773Z,20.87
2023-02-02T10:44:09.035Z,21.44
2023-02-02T10:46:40.486Z,21.02
2023-02-02T10:49:06.978Z,21.90
2023-02-02T10:51:34.112Z,21.95
2023-02-02T10:54:05.121Z,22.23
2023-02-02T10:56:37.573Z,22.19
2023-02-02T10:59:14.122Z,21.70
2023-02-02T11:01:41.037Z,21.17
2023-02-02T11:04:29.534Z,20.89
2023-02-02T11:06:56.358Z,20.47
2023-02-02T11:09:32.353Z,20.13
2023-02-02T11:12:13.807Z,19.82
2023-02-02T11:14:49.520Z,19.61
2023-02-02T11:17:22.343Z,19.39
2023-02-02T11:19:50.000Z,19.74
2023-02-02T11:22:46.306Z,18.91
2023-02-02T11:25:32.403Z,17.96
2023-02-02T11:27:58.972Z,18.17
2023-02-02T11:30:35.500Z,18.48
2023-02-02T11:33:20.827Z,18.72
2023-02-02T11:35:54.194Z,18.68
2023-02-02T11:38:21.618Z,18.21
2023-02-02T11:41:03.705Z,17.88
2023-02-02T11:43:36.294Z,17.59
2023-02-02T11:46:05.812Z,17.68
2023-02-02T11:48:39.704Z,18.15
2023-02-02T11:51:09.989Z,17.92
2023-02-02T11:54:05.968Z,17.74
2023-02-02T11:56:35.171Z,17.83
2023-02-02T11:59:03.902Z,17.64
2023-02-02T12:01:39.826Z,17.53
2023-02-02T12:04:15.801Z,17.87
2023-02-02T12:06:42.414Z,18.29
2023-02-02T12:09:21.531Z,18.54
2023-02-02T12:12:02.926Z,18.62
2023-02-02T12:14:41.890Z,18.51
2023-02-02T12:17:14.548Z,18.14
2023-02-02T12:19:59.296Z,17.80
2023-02-02T12:22:45.991Z,18.91
2023-02-02T12:25:51.802Z,19.03
2023-02-02T12:28:39.196Z,19.84
2023-02-02T12:31:26.541Z,19.77
2023-02-02T12:34:17.089Z,18.64
2023-02-02T12:36:56.942Z,18.32
2023-02-02T12:39:47.514Z,18.40
2023-02-02T12:42:25.715Z,18.65
2023-02-02T12:45:23.893Z,17.88
2023-02-02T12:48:21.676Z,16.75
2023-02-02T12:51:06.270Z,17.00
2023-02-02T12:54:32.600Z,17.63
2023-02-02T12:56:52.060Z,18.00
2023-02-02T12:59:30.500Z,18.38
2023-02-02T13:02:05.154Z,17.84
2023-02-02T13:04:59.845Z,18.41
2023-02-02T13:07:43.978Z,17.88
2023-02-02T13:10:21.670Z,17.56
2023-02-02T13:13:09.505Z,17.72
2023-02-02T13:15:40.056Z,18.24
2023-02-02T13:18:14.766Z,18.87
2023-02-02T13:20:45.666Z,20.36
2023-02-02T13:23:27.309Z,20.04
2023-02-02T13:26:01.201Z,19.89
2023-02-02T13:28:36.401Z,19.44
2023-02-02T13:31:09.794Z,19.05
2023-02-02T13:33:37.950Z,17.99
2023-02-02T13:36:25.608Z,19.99
2023-02-02T13:38:58.399Z,21.13
2023-02-02T13:41:26.108Z,19.22
2023-02-02T13:44:13.646Z,19.01
2023-02-02T13:46:51.486Z,22.19
2023-02-02T13:49:24.374Z,19.58
2023-02-02T13:51:57.586Z,17.61
2023-02-02T13:54:47.742Z,17.28
2023-02-02T13:57:35.906Z,19.37
2023-02-02T14:00:25.662Z,18.89
2023-02-02T14:03:03.740Z,22.72
2023-02-02T14:05:34.749Z,23.89
2023-02-02T14:08:06.712Z,21.05
2023-02-02T14:10:39.796Z,19.53
2023-02-02T14:13:32.315Z,19.06
2023-02-02T14:16:01.943Z,18.49
2023-02-02T14:18:50.755Z,18.28
2023-02-02T14:21:32.627Z,18.34
2023-02-02T14:24:02.958Z,18.42
2023-02-02T14:26:46.431Z,18.07
2023-02-02T14:29:31.464Z,18.66
2023-02-02T14:32:00.077Z,23.22
2023-02-02T14:34:30.597Z,20.71
2023-02-02T14:37:24.881Z,18.92
2023-02-02T14:39:57.380Z,18.48
2023-02-02T14:42:58.966Z,18.30
2023-02-02T14:45:39.262Z,18.07
2023-02-02T14:48:22.462Z,18.33
2023-02-02T14:50:55.856Z,18.57
2023-02-02T14:53:37.609Z,19.98
2023-02-02T14:56:09.533Z,23.39
2023-02-02T14:58:39.938Z,20.24
2023-02-02T15:01:25.043Z,19.84
2023-02-02T15:04:00.447Z,18.57
2023-02-02T15:06:34.218Z,18.06
2023-02-02T15:09:19.469Z,18.08
2023-02-02T15:12:04.419Z,18.24
2023-02-02T15:15:02.180Z,18.19
2023-02-02T15:17:41.575Z,18.15
2023-02-02T15:20:22.808Z,18.17
2023-02-02T15:23:22.681Z,18.06
2023-02-02T15:25:59.167Z,17.45
2023-02-02T15:28:47.088Z,17.73
2023-02-02T15:31:34.909Z,16.98
2023-02-02T15:34:10.054Z,16.99
2023-02-02T15:36:42.116Z,17.07
2023-02-02T15:39:19.361Z,17.07
2023-02-02T15:41:49.629Z,17.02
2023-02-02T15:44:21.739Z,17.18
2023-02-02T15:46:49.198Z,17.16
2023-02-02T15:49:31.706Z,17.12
2023-02-02T15:52:03.207Z,16.95
2023-02-02T15:54:35.079Z,16.94
2023-02-02T15:57:02.838Z,16.86
2023-02-02T15:59:38.865Z,16.79
2023-02-02T16:02:08.152Z,17.01
2023-02-02T16:04:37.293Z,16.98
2023-02-02T16:07:06.699Z,16.80
2023-02-02T16:09:35.617Z,16.64
2023-02-02T16:12:05.168Z,16.71
2023-02-02T16:14:36.134Z,16.84
2023-02-02T16:17:23.896Z,17.07
2023-02-02T16:19:56.918Z,16.29
2023-02-02T16:22:25.324Z,16.59
2023-02-02T16:24:55.669Z,18.67
2023-02-02T16:27:26.701Z,17.13
2023-02-02T16:29:56.633Z,21.00
2023-02-02T16:32:29.945Z,19.58
2023-02-02T16:34:57.165Z,19.28
2023-02-02T16:37:29.415Z,19.71
2023-02-02T16:39:58.082Z,17.15
2023-02-02T16:42:31.688Z,16.52
2023-02-02T16:44:59.832Z,16.33
2023-02-02T16:47:26.437Z,16.64
2023-02-02T16:50:14.576Z,17.13
2023-02-02T16:53:02.775Z,15.78
2023-02-02T16:55:47.994Z,15.74
2023-02-02T16:58:22.894Z,15.93
2023-02-02T17:01:13.995Z,15.93
2023-02-02T17:03:49.106Z,15.55
2023-02-02T17:06:15.648Z,15.43
2023-02-02T17:08:42.144Z,15.61
2023-02-02T17:11:25.397Z,16.48
2023-02-02T17:13:53.681Z,16.40
2023-02-02T17:16:22.921Z,15.89
2023-02-02T17:18:50.964Z,15.78
2023-02-02T17:21:21.126Z,15.80
2023-02-02T17:23:51.441Z,15.25
2023-02-02T17:26:18.185Z,14.85
2023-02-02T17:28:44.729Z,15.21
2023-02-02T17:31:16.327Z,15.41
2023-02-02T17:33:43.528Z,15.60
2023-02-02T17:36:13.125Z,17.03
2023-02-02T17:38:39.874Z,15.48
2023-02-02T17:41:07.063Z,15.45
2023-02-02T17:43:33.580Z,15.07
2023-02-02T17:46:00.161Z,14.86
2023-02-02T17:48:27.063Z,14.85
2023-02-02T17:50:53.706Z,14.89
2023-02-02T17:53:21.851Z,14.38
2023-02-02T17:55:50.252Z,14.85
2023-02-02T17:58:17.862Z,15.11
2023-02-02T18:00:47.807Z,14.50
2023-02-02T18:03:24.823Z,13.82
2023-02-02T18:05:52.109Z,14.01
2023-02-02T18:08:19.303Z,14.01
2023-02-02T18:10:46.594Z,14.20
2023-02-02T18:13:19.237Z,14.14
2023-02-02T18:15:46.425Z,14.11
2023-02-02T18:18:13.106Z,14.15
2023-02-02T18:20:43.696Z,14.28
2023-02-02T18:23:11.025Z,14.09
2023-02-02T18:25:39.413Z,14.61
2023-02-02T18:28:07.458Z,15.45
2023-02-02T18:30:34.539Z,14.90
2023-02-02T18:33:01.223Z,14.67
2023-02-02T18:35:28.312Z,14.15
2023-02-02T18:37:54.929Z,14.61
2023-02-02T18:40:21.462Z,14.60
2023-02-02T18:42:48.718Z,14.51
2023-02-02T18:45:15.267Z,14.44
2023-02-02T18:47:41.787Z,14.17
2023-02-02T18:50:08.929Z,14.20
2023-02-02T18:52:35.530Z,13.79
2023-02-02T18:55:02.330Z,13.69
2023-02-02T18:57:30.414Z,13.74
2023-02-02T18:59:56.931Z,13.95
2023-02-02T19:02:25.383Z,14.46
2023-02-02T19:05:10.622Z,14.50
2023-02-02T19:07:55.941Z,14.37
2023-02-02T19:10:27.204Z,14.44
2023-02-02T19:13:09.853Z,13.82
2023-02-02T19:15:39.246Z,13.83
2023-02-02T19:18:13.707Z,14.25
2023-02-02T19:20:40.665Z,13.52
2023-02-02T19:23:12.935Z,13.86
2023-02-02T19:25:41.019Z,14.04
2023-02-02T19:28:23.595Z,13.59
2023-02-02T19:30:53.964Z,14.11
2023-02-02T19:33:21.012Z,13.50
2023-02-02T19:35:51.571Z,13.99
2023-02-02T19:38:21.236Z,14.18
2023-02-02T19:40:47.995Z,14.08
2023-02-02T19:43:26.975Z,13.46
2023-02-02T19:45:56.376Z,14.09
2023-02-02T19:48:27.896Z,13.97
2023-02-02T19:50:55.735Z,13.72
2023-02-02T19:53:25.159Z,15.01
2023-02-02T19:55:52.743Z,13.67
2023-02-02T19:58:21.125Z,13.63
2023-02-02T20:00:50.198Z,13.79
2023-02-02T20:03:27.256Z,13.80
2023-02-02T20:05:57.339Z,14.11
2023-02-02T20:08:31.841Z,13.95
2023-02-02T20:11:00.784Z,13.44
2023-02-02T20:13:47.914Z,13.40
2023-02-02T20:16:18.468Z,13.63
2023-02-02T20:18:48.778Z,13.85
2023-02-02T20:21:22.502Z,13.58
2023-02-02T20:23:49.219Z,13.30
2023-02-02T20:26:28.973Z,13.98
2023-02-02T20:28:58.610Z,13.02
2023-02-02T20:31:34.507Z,13.46
2023-02-02T20:34:01.591Z,13.04
2023-02-02T20:36:40.591Z,13.28
2023-02-02T20:39:31.913Z,12.59
2023-02-02T20:41:59.461Z,12.64
2023-02-02T20:44:28.678Z,12.24
2023-02-02T20:46:56.580Z,11.89
2023-02-02T20:49:25.480Z,12.33
2023-02-02T20:51:54.416Z,12.06
2023-02-02T20:54:21.293Z,11.75
2023-02-02T20:56:48.015Z,11.31
2023-02-02T20:59:14.651Z,11.11
2023-02-02T21:01:41.723Z,11.03
2023-02-02T21:04:08.868Z,11.76
2023-02-02T21:06:37.519Z,12.51
2023-02-02T21:09:05.594Z,12.46
2023-02-02T21:11:32.126Z,11.99
2023-02-02T21:13:59.873Z,12.34
2023-02-02T21:16:26.520Z,12.56
2023-02-02T21:18:53.423Z,12.13
2023-02-02T21:21:22.462Z,12.14
2023-02-02T21:23:51.977Z,12.01
2023-02-02T21:26:22.280Z,11.94
2023-02-02T21:28:49.357Z,12.47
2023-02-02T21:31:17.123Z,12.93
2023-02-02T21:33:47.873Z,13.39
2023-02-02T21:36:15.762Z,12.96
2023-02-02T21:38:42.274Z,12.08
2023-02-02T21:41:14.145Z,12.61
2023-02-02T21:43:41.414Z,12.66
2023-02-02T21:46:17.860Z,13.13
2023-02-02T21:48:45.919Z,12.52
2023-02-02T21:51:32.113Z,13.35
2023-02-02T21:53:59.196Z,12.95
2023-02-02T21:56:28.468Z,13.47
2023-02-02T21:58:59.211Z,13.41
2023-02-02T22:01:34.624Z,14.03
2023-02-02T22:04:01.282Z,13.30
2023-02-02T22:06:30.826Z,13.49
2023-02-02T22:09:12.405Z,13.35
2023-02-02T22:11:55.820Z,14.25
2023-02-02T22:14:37.085Z,16.74
2023-02-02T22:17:20.701Z,14.01
2023-02-02T22:19:47.980Z,14.22
2023-02-02T22:22:23.356Z,13.83
2023-02-02T22:24:59.982Z,14.25
2023-02-02T22:27:40.675Z,18.14
2023-02-02T22:30:20.859Z,18.62
2023-02-02T22:32:47.480Z,16.79
2023-02-02T22:35:14.236Z,16.55
2023-02-02T22:37:40.757Z,14.78
2023-02-02T22:40:08.421Z,14.28
2023-02-02T22:42:34.922Z,14.15
2023-02-02T22:45:01.447Z,13.96
2023-02-02T22:47:28.012Z,13.95
2023-02-02T22:49:54.507Z,13.98
2023-02-02T22:52:21.237Z,13.82
2023-02-02T22:54:47.725Z,13.68
2023-02-02T22:57:14.765Z,13.72
2023-02-02T22:59:41.318Z,14.39
2023-02-02T23:02:07.909Z,14.22
2023-02-02T23:04:34.411Z,14.41
2023-02-02T23:07:00.985Z,14.61
2023-02-02T23:09:27.465Z,13.78
2023-02-02T23:11:53.959Z,14.96
2023-02-02T23:14:20.449Z,14.39
2023-02-02T23:16:47.079Z,14.09
2023-02-02T23:19:13.621Z,13.89
2023-02-02T23:21:40.384Z,13.90
2023-02-02T23:24:07.381Z,13.80
2023-02-02T23:26:33.938Z,13.47
2023-02-02T23:29:00.795Z,13.73
2023-02-02T23:31:27.387Z,14.10
2023-02-02T23:33:53.984Z,13.62
2023-02-02T23:36:20.505Z,14.09
2023-02-02T23:38:47.013Z,15.11
2023-02-02T23:41:13.664Z,14.84
2023-02-02T23:43:42.920Z,14.86
2023-02-02T23:46:10.998Z,14.17
2023-02-02T23:48:37.830Z,14.09
2023-02-02T23:51:04.417Z,14.22
2023-02-02T23:53:30.933Z,14.63
2023-02-02T23:55:57.548Z,14.53
2023-02-02T23:58:24.071Z,14.36
